Westside, Nebraska
Current Conditions -  °F | °C
As of 2:55 AM on Saturday 22 Nov 2014 (Local Time) from KHDE Reporting Station
Haze Haze  
Wind Chill: 25°   Ceiling: Unl
Heat Index: 31°   Visibility: 4mi
Dew Point: 30°   Wind: 7mph
Humidity: 96%   Direction: 210°SSW
Pressure: 29.89"   Gusts: NA
Location:  40.5759°N, 99.537°W
Report Text: KHDE 220855Z AUTO 21006KT 4SM BR CLR 00/M01 A2989 RMK AO2 T10041010
Loading
Personal Weather Stations






























Interactive Weather Map New forecast layout! Learn more

10-Day Weather Forecast

Advertisements
Track Severe Weather on mobile